Time;durP1;ratioP1;P1;durP2;ratioP2;P2;SDS_P1;SDS_P2;PMS_P1;PMS_P2;Temp;Humidity;BMP_temperature;BMP_pressure;BME280_temperature;BME280_humidity;BME280_pressure;Samples;Min_cycle;Max_cycle;Signal;HPM_P1;HPM_P2
2022/07/01 00:00:38;;;;;;;;;;;16.70;99.90;;;;;;5047349;28;20504;-64
2022/07/01 00:03:05;;;;;;;4.35;3.40;;;16.60;99.90;;;;;;5050288;28;19927;-64
2022/07/01 00:05:32;;;;;;;5.68;3.80;;;16.60;99.90;;;;;;5049356;28;20044;-64
2022/07/01 00:07:58;;;;;;;4.88;4.05;;;16.50;99.90;;;;;;5041990;28;20041;-64
2022/07/01 00:10:25;;;;;;;9.02;4.70;;;16.40;99.90;;;;;;5052860;28;20138;-64
2022/07/01 00:12:52;;;;;;;7.75;4.07;;;16.60;99.90;;;;;;5036065;28;20042;-64
2022/07/01 00:15:19;;;;;;;10.63;5.20;;;16.60;99.90;;;;;;5040147;28;20044;-64
2022/07/01 00:17:45;;;;;;;7.05;3.80;;;16.50;99.90;;;;;;5043793;28;20494;-64
2022/07/01 00:20:12;;;;;;;6.93;3.65;;;16.50;99.90;;;;;;5044668;28;20513;-64
2022/07/01 00:22:39;;;;;;;7.75;4.63;;;16.50;99.90;;;;;;5024608;28;20045;-64
2022/07/01 00:25:07;;;;;;;8.07;4.13;;;16.50;99.90;;;;;;5054009;28;20490;-64
2022/07/01 00:27:41;;;;;;;6.80;4.18;;;16.50;99.90;;;;;;5053772;28;20048;-64
2022/07/01 00:30:09;;;;;;;6.95;4.68;;;16.40;99.90;;;;;;5052582;28;20036;-64
2022/07/01 00:32:36;;;;;;;7.07;4.45;;;16.50;99.90;;;;;;5045638;28;20048;-64
2022/07/01 00:35:03;;;;;;;8.95;4.78;;;16.50;99.90;;;;;;5053595;28;20045;-64
2022/07/01 00:37:30;;;;;;;7.65;4.80;;;16.50;99.90;;;;;;5052953;28;20413;-64
2022/07/01 00:39:56;;;;;;;9.63;4.28;;;16.50;99.90;;;;;;5045268;28;20628;-64
2022/07/01 00:42:23;;;;;;;7.57;4.43;;;16.60;99.90;;;;;;5053859;28;20452;-64
2022/07/01 00:44:50;;;;;;;11.27;4.18;;;16.60;99.90;;;;;;5053739;28;20052;-64
2022/07/01 00:47:17;;;;;;;6.63;4.22;;;16.60;99.90;;;;;;5046719;28;20041;-64
2022/07/01 00:49:44;;;;;;;9.48;4.45;;;16.50;99.90;;;;;;5051058;28;20092;-64
2022/07/01 00:52:11;;;;;;;;;;;16.50;99.90;;;;;;5053753;28;20044;-65
2022/07/01 00:54:39;;;;;;;9.60;3.65;;;16.50;99.90;;;;;;5051852;28;19928;-65
2022/07/01 00:57:08;;;;;;;5.22;2.95;;;16.50;99.90;;;;;;5049417;28;20401;-64
2022/07/01 00:59:35;;;;;;;7.82;2.65;;;16.50;99.90;;;;;;5033440;28;20041;-64
2022/07/01 01:02:04;;;;;;;6.30;2.90;;;16.40;99.90;;;;;;5033012;28;20048;-64
2022/07/01 01:04:31;;;;;;;4.80;3.10;;;16.40;99.90;;;;;;5037063;28;20045;-65
2022/07/01 01:06:58;;;;;;;6.80;3.72;;;16.30;99.90;;;;;;5052614;28;20063;-64
2022/07/01 01:09:25;;;;;;;;;;;16.30;99.90;;;;;;5053739;28;20520;-64
2022/07/01 01:11:52;;;;;;;6.50;3.95;;;16.20;99.90;;;;;;5051746;28;19920;-64
2022/07/01 01:14:18;;;;;;;7.22;4.72;;;16.10;99.90;;;;;;5044693;28;20049;-64
2022/07/01 01:16:45;;;;;;;6.97;4.10;;;16.10;99.90;;;;;;5052845;28;20053;-64
2022/07/01 01:19:12;;;;;;;8.43;4.20;;;16.10;99.90;;;;;;5053068;28;20067;-64
2022/07/01 01:21:39;;;;;;;9.80;4.28;;;16.00;99.90;;;;;;5034578;28;20070;-64
2022/07/01 01:24:07;;;;;;;6.93;4.70;;;16.10;99.90;;;;;;5053100;28;20037;-64
2022/07/01 01:26:34;;;;;;;6.65;4.22;;;16.10;99.90;;;;;;5052908;28;20045;-64
2022/07/01 01:29:01;;;;;;;7.55;4.45;;;16.00;99.90;;;;;;5051696;28;20482;-64
2022/07/01 01:31:29;;;;;;;8.05;4.47;;;16.10;99.90;;;;;;5043937;28;20052;-64
2022/07/01 01:33:57;;;;;;;8.05;4.80;;;16.10;99.90;;;;;;5052855;28;20060;-64
2022/07/01 01:36:24;;;;;;;;;;;16.10;99.90;;;;;;5053215;28;20048;-64
2022/07/01 01:38:50;;;;;;;8.48;4.03;;;16.10;99.90;;;;;;5049547;28;19928;-64
2022/07/01 01:41:17;;;;;;;7.22;4.15;;;16.20;99.90;;;;;;5046247;28;20055;-64
2022/07/01 01:43:44;;;;;;;5.72;3.72;;;16.20;99.90;;;;;;5052385;28;20037;-64
2022/07/01 01:46:11;;;;;;;8.13;3.78;;;16.20;99.90;;;;;;5051413;28;20756;-64
2022/07/01 01:48:37;;;;;;;5.35;3.45;;;16.20;99.90;;;;;;5044111;28;20608;-64
2022/07/01 01:51:04;;;;;;;10.35;4.00;;;16.10;99.90;;;;;;5051854;28;20387;-64
2022/07/01 01:53:31;;;;;;;12.93;4.18;;;16.10;99.90;;;;;;5034588;28;20045;-64
2022/07/01 01:55:58;;;;;;;;;;;16.10;99.90;;;;;;5040651;28;20042;-64
2022/07/01 01:58:26;;;;;;;7.38;3.55;;;16.10;99.90;;;;;;5029274;28;20398;-64
2022/07/01 02:00:52;;;;;;;;;;;16.10;99.90;;;;;;5052290;28;20390;-64
2022/07/01 02:03:19;;;;;;;4.65;3.20;;;16.10;99.90;;;;;;5051433;28;19921;-64
2022/07/01 02:05:46;;;;;;;12.13;3.55;;;16.00;99.90;;;;;;5043807;28;20128;-64
2022/07/01 02:08:13;;;;;;;5.60;3.25;;;16.00;99.90;;;;;;5052181;28;20421;-64
2022/07/01 02:10:40;;;;;;;8.48;3.55;;;16.10;99.90;;;;;;5051824;28;20037;-64
2022/07/01 02:13:06;;;;;;;4.55;2.92;;;16.10;99.90;;;;;;5050872;28;20037;-64
2022/07/01 02:15:33;;;;;;;5.13;2.92;;;16.10;99.90;;;;;;5060115;23;20056;-64
2022/07/01 02:18:00;;;;;;;4.65;2.92;;;16.10;99.90;;;;;;5071256;28;20032;-64
2022/07/01 02:21:14;;;;;;;8.18;3.35;;;16.10;99.90;;;;;;5071283;28;20033;-64
2022/07/01 02:23:40;;;;;;;5.30;3.33;;;16.10;99.90;;;;;;5071264;28;20481;-64
2022/07/01 02:26:07;;;;;;;6.85;3.15;;;16.10;99.90;;;;;;5068966;28;20041;-64
2022/07/01 02:28:34;;;;;;;6.05;2.85;;;16.20;99.90;;;;;;5052540;28;20033;-64
2022/07/01 02:31:02;;;;;;;3.88;2.83;;;16.30;99.90;;;;;;5051323;28;20033;-63
2022/07/01 02:33:29;;;;;;;4.05;3.17;;;16.20;99.90;;;;;;5047943;28;20091;-64
2022/07/01 02:35:56;;;;;;;7.03;3.15;;;16.10;99.90;;;;;;5061447;28;20059;-64
2022/07/01 02:38:23;;;;;;;5.05;2.72;;;16.20;99.90;;;;;;5071714;28;20055;-64
2022/07/01 02:40:50;;;;;;;6.13;2.78;;;16.20;99.90;;;;;;5071330;28;20489;-64
2022/07/01 02:43:17;;;;;;;6.60;3.85;;;16.20;99.90;;;;;;5060345;28;20042;-64
2022/07/01 02:45:44;;;;;;;6.00;2.92;;;16.20;99.90;;;;;;5057934;28;20044;-64
2022/07/01 02:48:10;;;;;;;5.30;2.92;;;16.20;99.90;;;;;;5070833;28;20040;-64
2022/07/01 02:50:37;;;;;;;6.57;3.35;;;16.10;99.90;;;;;;5066687;28;20102;-64
2022/07/01 02:53:04;;;;;;;6.40;3.22;;;16.10;99.90;;;;;;5045252;28;20056;-64
2022/07/01 02:55:31;;;;;;;7.10;3.65;;;16.10;99.90;;;;;;5071646;28;20381;-64
2022/07/01 02:57:58;;;;;;;5.28;3.03;;;16.10;99.90;;;;;;5070020;28;20051;-64
2022/07/01 03:00:25;;;;;;;5.13;2.88;;;16.10;99.90;;;;;;5054175;28;20045;-64
2022/07/01 03:02:52;;;;;;;8.13;3.10;;;16.20;99.90;;;;;;5069963;28;20036;-64
2022/07/01 03:05:19;;;;;;;4.07;2.95;;;16.20;99.90;;;;;;5071540;28;20054;-63
2022/07/01 03:07:46;;;;;;;4.05;2.97;;;16.20;99.90;;;;;;5064382;28;20038;-63
2022/07/01 03:10:12;;;;;;;7.97;3.17;;;16.30;99.90;;;;;;5062331;28;20496;-63
2022/07/01 03:12:40;;;;;;;5.60;2.88;;;16.30;99.90;;;;;;5071303;28;20044;-63
2022/07/01 03:15:09;;;;;;;4.05;2.83;;;16.30;99.90;;;;;;5053125;28;20048;-64
2022/07/01 03:17:42;;;;;;;6.30;3.13;;;16.30;99.90;;;;;;5064662;28;20040;-63
2022/07/01 03:20:12;;;;;;;5.80;2.65;;;16.30;99.90;;;;;;5063536;28;20051;-64
2022/07/01 03:22:39;;;;;;;3.78;2.55;;;16.30;99.90;;;;;;5071110;28;20536;-64
2022/07/01 03:25:07;;;;;;;3.97;2.78;;;16.30;99.90;;;;;;5071114;28;20048;-64
2022/07/01 03:27:34;;;;;;;5.07;3.17;;;16.30;99.90;;;;;;5054891;28;20047;-64
2022/07/01 03:30:02;;;;;;;;;;;16.30;99.90;;;;;;5054491;28;20037;-64
2022/07/01 03:32:29;;;;;;;5.03;2.80;;;16.30;99.90;;;;;;5071192;28;19924;-64
2022/07/01 03:34:56;;;;;;;6.15;2.45;;;16.40;99.90;;;;;;5058697;28;20042;-64
2022/07/01 03:37:23;;;;;;;5.47;3.25;;;16.40;99.90;;;;;;5062788;28;20040;-64
2022/07/01 03:39:50;;;;;;;4.78;3.30;;;16.40;99.90;;;;;;5070979;28;20045;-64
2022/07/01 03:42:18;;;;;;;8.82;3.00;;;16.50;99.90;;;;;;5070946;28;20060;-64
2022/07/01 03:44:44;;;;;;;5.80;2.97;;;16.50;99.90;;;;;;5056477;28;20055;-63
2022/07/01 03:47:11;;;;;;;6.80;3.22;;;16.60;99.90;;;;;;5067846;28;20040;-64
2022/07/01 03:49:38;;;;;;;5.13;3.10;;;16.60;99.90;;;;;;5074871;28;20095;-64
2022/07/01 03:52:05;;;;;;;4.03;2.65;;;16.70;99.90;;;;;;5069836;28;20047;-64
2022/07/01 03:54:33;;;;;;;7.60;3.10;;;16.70;99.90;;;;;;5066329;28;20033;-64
2022/07/01 03:57:02;;;;;;;4.63;2.60;;;16.80;99.90;;;;;;5074542;28;20437;-64
2022/07/01 03:59:31;;;;;;;4.10;2.70;;;16.80;99.90;;;;;;5074602;28;20059;-64
2022/07/01 04:01:59;;;;;;;4.65;2.88;;;16.80;99.90;;;;;;5060956;28;20041;-64
2022/07/01 04:04:26;;;;;;;5.07;2.90;;;16.80;99.90;;;;;;5069464;28;20045;-64
2022/07/01 04:06:55;;;;;;;5.60;2.70;;;16.90;99.90;;;;;;5074500;28;20120;-64
2022/07/01 04:09:22;;;;;;;3.30;2.60;;;16.90;99.90;;;;;;5070190;28;20040;-64
2022/07/01 04:11:50;;;;;;;3.13;2.45;;;16.90;99.90;;;;;;5065464;28;20580;-64
2022/07/01 04:14:17;;;;;;;2.67;2.40;;;17.00;99.90;;;;;;5074438;28;20072;-64
2022/07/01 04:16:45;;;;;;;8.25;2.42;;;17.00;99.90;;;;;;5059390;28;20041;-64
2022/07/01 04:19:14;;;;;;;3.72;2.85;;;17.00;99.90;;;;;;5055003;28;20051;-64
2022/07/01 04:24:28;;;;;;;4.70;2.72;;;17.00;99.90;;;;;;5074097;28;20417;-64
2022/07/01 04:26:54;;;;;;;5.20;2.60;;;17.00;99.90;;;;;;5057550;28;20045;-65
2022/07/01 04:29:21;;;;;;;2.60;2.33;;;17.00;99.90;;;;;;5062193;28;20037;-65
2022/07/01 04:31:48;;;;;;;4.45;2.58;;;17.00;99.90;;;;;;5071668;28;20040;-65
2022/07/01 04:34:15;;;;;;;7.35;3.15;;;17.00;99.90;;;;;;5074020;28;20081;-65
2022/07/01 04:36:42;;;;;;;8.15;3.45;;;17.00;99.90;;;;;;5057937;28;20115;-65
2022/07/01 04:39:09;;;;;;;6.53;2.72;;;17.10;99.90;;;;;;5052672;28;20508;-65
2022/07/01 04:44:21;;;;;;;8.43;2.97;;;17.10;99.90;;;;;;5052540;28;20397;-65
2022/07/01 04:46:48;;;;;;;3.50;2.33;;;17.20;99.90;;;;;;5054328;28;20047;-64
2022/07/01 04:49:14;;;;;;;6.25;2.75;;;17.20;99.90;;;;;;5066864;28;20041;-65
2022/07/01 04:51:41;;;;;;;5.20;2.75;;;17.20;99.90;;;;;;5073249;28;20052;-65
2022/07/01 04:54:09;;;;;;;4.82;2.85;;;17.30;99.90;;;;;;5068436;28;20512;-65
2022/07/01 04:56:36;;;;;;;;;;;17.40;99.90;;;;;;5057512;28;20037;-65
2022/07/01 04:59:10;;;;;;;9.00;3.60;;;17.40;99.90;;;;;;5033672;28;19931;-65
2022/07/01 05:01:36;;;;;;;6.13;4.15;;;17.50;99.90;;;;;;5033137;28;20505;-65
2022/07/01 05:04:03;;;;;;;5.18;4.05;;;17.50;99.90;;;;;;5033333;28;20041;-65
2022/07/01 05:06:30;;;;;;;6.65;4.55;;;17.50;99.90;;;;;;5057049;28;20087;-64
2022/07/01 05:08:57;;;;;;;8.18;4.10;;;17.50;99.90;;;;;;5072240;28;20048;-65
2022/07/01 05:11:24;;;;;;;11.70;3.70;;;17.70;99.90;;;;;;5072950;28;20045;-63
2022/07/01 05:13:51;;;;;;;12.80;3.85;;;17.60;99.90;;;;;;5057170;28;20409;-65
2022/07/01 05:16:18;;;;;;;6.97;3.90;;;17.80;99.90;;;;;;5056128;28;20041;-65
2022/07/01 05:24:16;;;;;;;5.88;2.70;;;18.00;99.90;;;;;;5055093;28;20055;-65
2022/07/01 05:26:43;;;;;;;6.10;2.60;;;18.10;99.90;;;;;;5072969;28;20041;-64
2022/07/01 05:29:10;;;;;;;8.82;2.85;;;18.10;99.90;;;;;;5053172;28;20044;-64
2022/07/01 05:31:36;;;;;;;5.85;2.80;;;18.20;99.90;;;;;;5055378;28;20040;-64
2022/07/01 05:34:03;;;;;;;4.13;2.50;;;18.20;99.90;;;;;;5072643;28;20119;-64
2022/07/01 05:36:31;;;;;;;4.85;3.53;;;18.20;99.90;;;;;;5072798;28;20116;-64
2022/07/01 05:38:58;;;;;;;9.52;3.85;;;18.20;99.90;;;;;;5053669;28;20044;-64
2022/07/01 05:41:24;;;;;;;6.30;3.45;;;18.40;99.90;;;;;;5053643;28;20037;-65
2022/07/01 05:43:51;;;;;;;5.93;3.22;;;18.50;99.90;;;;;;5070382;28;20040;-64
2022/07/01 05:46:18;;;;;;;8.27;3.15;;;18.60;99.90;;;;;;5071202;28;20036;-65
2022/07/01 05:48:45;;;;;;;5.75;3.55;;;18.60;99.90;;;;;;5059756;28;20156;-65
2022/07/01 05:51:12;;;;;;;7.32;3.63;;;18.70;99.90;;;;;;5072202;28;20044;-64
2022/07/01 05:53:38;;;;;;;7.15;3.42;;;18.80;99.90;;;;;;5072405;28;20382;-65
2022/07/01 05:56:05;;;;;;;6.68;3.75;;;18.80;99.90;;;;;;5057872;28;20099;-65
2022/07/01 05:58:32;;;;;;;9.02;3.72;;;18.80;99.90;;;;;;5068449;28;20444;-65
2022/07/01 06:00:59;;;;;;;8.02;3.63;;;18.80;99.90;;;;;;5072178;28;20463;-65
2022/07/01 06:03:35;;;;;;;5.70;3.80;;;18.80;99.90;;;;;;5072270;28;20048;-64
2022/07/01 06:06:02;;;;;;;7.47;3.90;;;18.80;99.90;;;;;;5054574;28;20041;-64
2022/07/01 06:08:29;;;;;;;7.25;3.80;;;18.70;99.90;;;;;;5067085;28;20041;-65
2022/07/01 06:10:56;;;;;;;8.85;3.92;;;18.70;99.90;;;;;;5071825;28;20041;-64
2022/07/01 06:13:22;;;;;;;4.47;3.20;;;18.60;99.90;;;;;;5058098;28;20055;-65
2022/07/01 06:15:49;;;;;;;6.68;3.80;;;18.70;99.90;;;;;;5063458;28;20043;-65
2022/07/01 06:18:16;;;;;;;8.80;3.97;;;18.70;99.90;;;;;;5071792;28;20055;-65
2022/07/01 06:20:43;;;;;;;7.18;3.90;;;18.80;99.90;;;;;;5066360;28;20043;-65
2022/07/01 06:23:10;;;;;;;5.43;3.65;;;19.00;99.90;;;;;;5051519;28;20067;-66
2022/07/01 06:25:37;;;;;;;8.35;4.20;;;19.20;99.90;;;;;;5052805;28;20037;-65
2022/07/01 06:28:03;;;;;;;12.15;4.05;;;19.40;99.90;;;;;;5051207;28;20486;-65
2022/07/01 06:30:30;;;;;;;7.70;4.22;;;19.50;99.90;;;;;;5049044;28;20505;-65
2022/07/01 06:32:57;;;;;;;8.50;3.17;;;19.50;99.90;;;;;;5056908;28;20055;-65
2022/07/01 06:35:23;;;;;;;4.32;2.47;;;19.40;99.90;;;;;;5051036;28;20037;-65
2022/07/01 06:37:50;;;;;;;7.55;3.05;;;19.40;99.90;;;;;;5051531;28;20048;-65
2022/07/01 06:40:24;;;;;;;3.85;2.67;;;19.40;99.90;;;;;;5056258;28;20041;-65
2022/07/01 06:42:51;;;;;;;3.50;3.05;;;19.50;99.90;;;;;;5070001;28;20049;-65
2022/07/01 06:45:17;;;;;;;5.43;2.70;;;19.50;99.90;;;;;;5069454;28;20397;-65
2022/07/01 06:47:44;;;;;;;5.95;3.13;;;19.80;99.90;;;;;;5051428;28;20410;-65
2022/07/01 06:50:11;;;;;;;4.63;3.10;;;20.00;99.90;;;;;;5036652;28;20055;-65
2022/07/01 06:52:38;;;;;;;6.28;4.00;;;20.20;99.90;;;;;;5054420;28;20049;-65
2022/07/01 06:55:05;;;;;;;8.15;3.13;;;20.20;99.90;;;;;;5051364;28;20516;-65
2022/07/01 06:57:32;;;;;;;5.43;2.85;;;20.20;99.90;;;;;;5034295;28;20032;-65
2022/07/01 06:59:58;;;;;;;6.18;2.97;;;20.30;99.90;;;;;;5062462;28;20048;-65
2022/07/01 07:02:25;;;;;;;6.28;3.13;;;20.40;99.90;;;;;;5070959;28;20049;-65
2022/07/01 07:04:57;;;;;;;5.70;2.97;;;20.50;99.90;;;;;;5063292;28;20041;-65
2022/07/01 07:07:26;;;;;;;5.00;2.45;;;20.70;99.90;;;;;;5062914;28;20033;-65
2022/07/01 07:09:53;;;;;;;4.18;2.50;;;20.90;99.90;;;;;;5070806;28;20485;-65
2022/07/01 07:12:20;;;;;;;2.78;2.35;;;21.10;99.90;;;;;;5071182;28;20040;-65
2022/07/01 07:14:47;;;;;;;4.57;2.55;;;21.00;99.90;;;;;;5055346;28;20051;-65
2022/07/01 07:17:13;;;;;;;5.35;2.30;;;20.80;99.90;;;;;;5064194;28;20416;-65
2022/07/01 07:19:40;;;;;;;4.18;2.20;;;20.50;99.90;;;;;;5072825;28;20052;-65
2022/07/01 07:22:07;;;;;;;3.22;2.45;;;20.40;99.90;;;;;;5072082;28;20056;-65
2022/07/01 07:24:34;;;;;;;9.55;2.47;;;20.40;99.90;;;;;;5059374;28;20045;-65
2022/07/01 07:27:01;;;;;;;7.47;2.47;;;20.70;99.90;;;;;;5074760;28;20464;-65
2022/07/01 07:29:29;;;;;;;6.22;2.70;;;21.10;99.90;;;;;;5075102;28;20045;-65
2022/07/01 07:31:56;;;;;;;2.53;2.17;;;21.10;99.90;;;;;;5057766;28;20060;-65
2022/07/01 07:34:22;;;;;;;8.30;2.85;;;21.00;99.90;;;;;;5066527;28;20047;-65
2022/07/01 07:36:49;;;;;;;4.75;2.25;;;21.00;99.90;;;;;;5074988;28;20394;-65
2022/07/01 07:39:16;;;;;;;9.23;2.50;;;21.00;99.90;;;;;;5064596;28;20049;-65
2022/07/01 07:41:43;;;;;;;7.97;2.60;;;21.10;99.90;;;;;;5060772;28;20065;-65
2022/07/01 07:44:10;;;;;;;4.78;2.40;;;21.10;99.90;;;;;;5074777;28;20037;-65
2022/07/01 07:46:36;;;;;;;6.80;2.67;;;21.20;99.90;;;;;;5074331;28;20087;-65
2022/07/01 07:49:03;;;;;;;4.25;2.20;;;21.30;99.90;;;;;;5060387;28;20505;-65
2022/07/01 07:51:30;;;;;;;3.50;2.20;;;21.40;99.90;;;;;;5052011;28;20053;-65
2022/07/01 07:53:57;;;;;;;2.63;1.95;;;21.50;99.90;;;;;;5074669;28;20072;-65
2022/07/01 07:56:24;;;;;;;4.07;2.15;;;21.70;99.90;;;;;;5070645;28;20037;-65
2022/07/01 07:58:50;;;;;;;2.45;1.85;;;22.10;99.90;;;;;;5065906;28;20378;-66
2022/07/01 08:01:17;;;;;;;4.03;2.03;;;22.20;99.90;;;;;;5073729;28;20048;-65
2022/07/01 08:03:45;;;;;;;3.60;2.00;;;22.20;99.90;;;;;;5074410;28;20089;-66
2022/07/01 08:06:12;;;;;;;3.90;1.75;;;22.40;99.90;;;;;;5058357;28;20509;-66
2022/07/01 08:08:39;;;;;;;3.05;1.95;;;22.30;99.90;;;;;;5071316;28;20072;-66
2022/07/01 08:11:06;;;;;;;4.05;1.73;;;22.30;99.90;;;;;;5073899;28;20052;-66
2022/07/01 08:13:33;;;;;;;2.05;1.55;;;22.00;99.90;;;;;;5068415;28;20049;-65
2022/07/01 08:16:00;;;;;;;2.67;1.13;;;21.90;99.90;;;;;;5074156;22;20053;-68
2022/07/01 08:18:27;;;;;;;1.60;1.00;;;21.70;99.90;;;;;;5053091;28;20033;-68
2022/07/01 08:20:54;;;;;;;;;;;21.90;99.90;;;;;;5053524;28;20516;-68
2022/07/01 08:23:22;;;;;;;1.20;0.80;;;22.00;99.90;;;;;;5053939;28;20424;-68
2022/07/01 08:25:50;;;;;;;2.53;0.90;;;21.80;99.90;;;;;;5056998;28;20075;-69
2022/07/01 08:28:18;;;;;;;0.93;0.90;;;21.60;99.90;;;;;;5045437;28;20136;-68
2022/07/01 08:30:45;;;;;;;1.85;1.00;;;21.40;99.90;;;;;;5043514;28;20504;-68
2022/07/01 08:33:12;;;;;;;;;;;21.50;99.90;;;;;;5047317;28;20049;-68
2022/07/01 08:35:39;;;;;;;2.38;1.35;;;21.60;99.90;;;;;;5043506;28;19928;-68
2022/07/01 08:38:06;;;;;;;4.72;1.08;;;22.00;99.90;;;;;;5053587;28;20063;-69
2022/07/01 08:40:33;;;;;;;1.30;1.05;;;22.30;99.90;;;;;;5053125;28;20407;-68
2022/07/01 08:43:02;;;;;;;;;;;22.40;99.90;;;;;;5053484;28;20041;-68
2022/07/01 08:45:30;;;;;;;;;;;22.40;99.90;;;;;;5045365;28;19927;-68
2022/07/01 08:48:00;;;;;;;1.98;1.10;;;22.50;99.90;;;;;;5053597;28;19921;-69
2022/07/01 08:50:30;;;;;;;1.23;0.82;;;22.30;99.90;;;;;;5053052;28;20086;-68
2022/07/01 08:52:58;;;;;;;2.17;0.90;;;22.00;99.90;;;;;;5052398;28;20057;-68
2022/07/01 08:55:25;;;;;;;2.28;1.42;;;21.80;99.90;;;;;;5048275;28;20045;-68
2022/07/01 08:57:52;;;;;;;3.00;1.10;;;21.60;99.90;;;;;;5053229;28;20485;-68
2022/07/01 09:00:20;;;;;;;;;;;21.20;99.90;;;;;;5054947;28;20049;-68
2022/07/01 09:03:01;;;;;;;3.17;1.10;;;21.00;99.90;;;;;;5044811;28;19920;-68
2022/07/01 09:05:30;;;;;;;1.50;0.93;;;21.00;99.90;;;;;;5053233;28;20044;-69
2022/07/01 09:08:06;;;;;;;1.75;1.27;;;20.90;99.90;;;;;;5052642;28;20128;-68
2022/07/01 09:10:34;;;;;;;1.20;1.10;;;20.80;99.90;;;;;;5044510;28;20043;-69
2022/07/01 09:13:07;;;;;;;2.22;1.15;;;20.60;99.90;;;;;;5052965;28;20053;-68
2022/07/01 09:15:35;;;;;;;1.85;1.00;;;20.50;99.90;;;;;;5052385;28;20047;-69
2022/07/01 09:18:16;;;;;;;1.10;1.02;;;20.30;99.90;;;;;;5052191;28;20045;-69
2022/07/01 09:20:44;;;;;;;5.65;0.95;;;20.10;99.90;;;;;;5044302;28;20127;-69
2022/07/01 09:23:13;;;;;;;2.78;0.90;;;20.00;99.90;;;;;;5052910;28;20049;-68
2022/07/01 09:25:43;;;;;;;1.98;1.10;;;20.00;99.90;;;;;;5052820;28;20037;-69
2022/07/01 09:28:21;;;;;;;2.70;1.10;;;19.80;99.90;;;;;;5052127;28;20044;-69
2022/07/01 09:30:53;;;;;;;2.00;1.25;;;19.70;99.90;;;;;;5043888;28;20421;-68
2022/07/01 09:33:22;;;;;;;2.08;1.33;;;19.60;99.90;;;;;;5052829;28;20395;-69
2022/07/01 09:35:50;;;;;;;3.72;1.42;;;19.60;99.90;;;;;;5034920;28;20115;-68
2022/07/01 09:38:19;;;;;;;2.45;1.63;;;19.50;99.90;;;;;;5052134;28;20052;-68
2022/07/01 09:41:03;;;;;;;2.65;1.23;;;19.50;99.90;;;;;;5043551;28;20083;-68
2022/07/01 09:43:33;;;;;;;2.03;1.50;;;19.40;99.90;;;;;;5051671;28;20120;-68
2022/07/01 09:46:09;;;;;;;1.88;1.40;;;19.50;99.90;;;;;;5052154;28;20041;-68
2022/07/01 09:48:35;;;;;;;1.98;1.65;;;19.50;99.90;;;;;;5040700;28;20065;-68
2022/07/01 09:51:07;;;;;;;3.85;1.83;;;19.50;99.90;;;;;;5031883;28;20045;-68
2022/07/01 09:53:40;;;;;;;2.03;0.57;;;19.40;99.90;;;;;;5032434;28;20563;-68
2022/07/01 09:56:07;;;;;;;1.33;0.40;;;18.90;99.90;;;;;;5043898;28;20052;-68
2022/07/01 09:58:37;;;;;;;1.75;0.40;;;18.30;99.90;;;;;;5048267;28;20041;-68
2022/07/01 10:01:04;;;;;;;1.85;0.20;;;18.00;99.90;;;;;;5051937;28;20044;-69
2022/07/01 10:03:32;;;;;;;1.30;0.38;;;17.60;99.90;;;;;;5051330;28;20040;-68
2022/07/01 10:06:18;;;;;;;1.95;0.30;;;17.10;99.90;;;;;;5025700;28;20049;-69
2022/07/01 10:09:40;;;;;;;0.17;0.17;;;16.60;99.90;;;;;;5052145;28;20051;-68
2022/07/01 10:12:31;;;;;;;2.15;0.20;;;16.10;99.90;;;;;;5011739;28;20049;-68
2022/07/01 10:15:01;;;;;;;0.90;0.40;;;15.70;99.90;;;;;;5043651;28;20045;-68
2022/07/01 10:17:37;;;;;;;0.17;0.17;;;15.50;99.90;;;;;;5051526;28;20040;-68
2022/07/01 10:20:11;;;;;;;0.52;0.10;;;15.40;99.90;;;;;;5047201;28;20049;-67
2022/07/01 10:22:38;;;;;;;0.10;0.10;;;15.30;99.90;;;;;;5048336;28;20045;-68
2022/07/01 10:25:32;;;;;;;0.20;0.10;;;15.30;99.90;;;;;;5050966;28;20051;-68
2022/07/01 10:28:38;;;;;;;1.27;0.20;;;15.20;99.90;;;;;;5049789;28;20055;-68
2022/07/01 10:31:09;;;;;;;2.28;0.10;;;15.20;99.90;;;;;;5050385;28;20041;-68
2022/07/01 10:33:49;;;;;;;0.10;0.10;;;15.20;99.90;;;;;;5051270;28;20052;-67
2022/07/01 10:36:22;;;;;;;2.20;0.10;;;15.20;99.90;;;;;;5051309;28;20033;-68
2022/07/01 10:39:06;;;;;;;0.15;0.10;;;15.20;99.90;;;;;;5050102;28;20520;-67
2022/07/01 10:41:57;;;;;;;1.55;0.10;;;15.20;99.90;;;;;;5051233;28;20512;-69
2022/07/01 10:45:07;;;;;;;0.10;0.10;;;15.20;99.90;;;;;;5051242;28;20084;-68
2022/07/01 10:47:34;;;;;;;0.10;0.10;;;15.10;99.90;;;;;;5056388;28;20036;-71
2022/07/01 10:50:18;;;;;;;0.30;0.10;;;15.00;99.90;;;;;;5042510;28;20033;-70
2022/07/01 10:53:00;;;;;;;;;;;15.00;99.90;;;;;;5051795;28;20051;-70
2022/07/01 10:56:03;;;;;;;0.20;0.10;;;15.00;99.90;;;;;;5051097;28;19920;-70
2022/07/01 10:58:37;;;;;;;0.28;0.20;;;14.90;99.90;;;;;;4961251;28;20043;-70
2022/07/01 11:01:04;;;;;;;2.67;0.20;;;14.90;99.90;;;;;;5036614;28;20049;-70
2022/07/01 11:03:34;;;;;;;;;;;14.90;99.90;;;;;;5051814;28;20068;-70
2022/07/01 11:06:01;;;;;;;0.95;0.10;;;14.90;99.90;;;;;;5053088;28;19920;-70
2022/07/01 11:08:28;;;;;;;0.10;0.10;;;14.90;99.90;;;;;;5025186;28;20041;-70
2022/07/01 11:11:01;;;;;;;0.10;0.10;;;14.90;99.90;;;;;;5050672;28;20041;-70
2022/07/01 11:13:29;;;;;;;1.10;0.20;;;14.90;99.90;;;;;;5051327;28;20486;-70
2022/07/01 11:15:56;;;;;;;1.50;0.28;;;14.90;99.90;;;;;;5050417;28;20052;-70
2022/07/01 11:18:23;;;;;;;;;;;14.80;99.90;;;;;;5025459;28;20493;-70
2022/07/01 11:20:50;;;;;;;0.30;0.17;;;14.80;99.90;;;;;;5050641;28;20373;-70
2022/07/01 11:23:16;;;;;;;1.00;0.20;;;14.80;99.90;;;;;;5049813;28;20047;-70
2022/07/01 11:25:44;;;;;;;0.43;0.10;;;14.80;99.90;;;;;;5050523;28;20056;-70
2022/07/01 11:28:11;;;;;;;0.10;0.10;;;14.80;99.90;;;;;;5050757;28;20064;-70
2022/07/01 11:30:38;;;;;;;0.30;0.25;;;14.90;99.90;;;;;;5050036;28;20037;-70
2022/07/01 11:33:07;;;;;;;0.82;0.22;;;14.90;99.90;;;;;;5056044;28;20045;-69
2022/07/01 11:41:22;;;;;;;0.75;0.10;;;15.00;99.90;;;;;;5050597;28;20067;-70
2022/07/01 11:43:51;;;;;;;0.47;0.10;;;15.00;99.90;;;;;;5038470;28;20425;-70
2022/07/01 11:46:19;;;;;;;1.48;0.10;;;15.10;99.90;;;;;;5044759;28;20049;-70
2022/07/01 11:48:51;;;;;;;0.98;0.15;;;15.00;99.90;;;;;;5050860;28;20045;-68
2022/07/01 11:51:23;;;;;;;2.55;0.20;;;15.00;99.90;;;;;;5045867;28;20045;-68
2022/07/01 11:53:54;;;;;;;1.05;0.70;;;15.10;99.90;;;;;;5048635;28;20420;-68
2022/07/01 11:56:39;;;;;;;0.40;0.20;;;15.20;99.90;;;;;;5050245;28;20076;-68
2022/07/01 11:59:06;;;;;;;0.20;0.20;;;15.20;99.90;;;;;;5049679;28;20060;-68
2022/07/01 12:01:37;;;;;;;0.10;0.10;;;15.10;99.90;;;;;;5050137;28;20048;-70
2022/07/01 12:04:08;;;;;;;1.88;0.20;;;15.10;99.90;;;;;;5050749;28;20037;-70
2022/07/01 12:06:39;;;;;;;1.23;0.10;;;15.10;99.90;;;;;;5053654;28;20119;-70
2022/07/01 12:09:06;;;;;;;0.63;0.63;;;15.10;99.90;;;;;;5053564;28;20044;-70
2022/07/01 12:11:33;;;;;;;;;;;15.00;99.90;;;;;;5053904;28;20095;-70
2022/07/01 12:14:05;;;;;;;1.10;0.20;;;14.90;99.90;;;;;;5054369;28;19927;-70
2022/07/01 12:16:41;;;;;;;2.10;0.20;;;15.00;99.90;;;;;;5053331;28;20486;-70
2022/07/01 12:19:12;;;;;;;1.30;0.30;;;15.00;99.90;;;;;;5049087;28;20029;-71
2022/07/01 12:22:09;;;;;;;0.38;0.20;;;15.00;99.90;;;;;;5050543;28;20045;-70
2022/07/01 12:24:36;;;;;;;0.10;0.10;;;15.00;99.90;;;;;;5033922;28;20478;-70
2022/07/01 12:27:06;;;;;;;1.38;0.20;;;14.90;99.90;;;;;;5049450;28;20037;-70
2022/07/01 12:29:45;;;;;;;0.45;0.28;;;14.80;99.90;;;;;;5049187;28;20045;-70
2022/07/01 12:32:18;;;;;;;0.38;0.20;;;14.80;99.90;;;;;;5048474;28;20048;-70
2022/07/01 12:34:46;;;;;;;1.15;0.40;;;14.70;99.90;;;;;;5053760;28;20041;-70
2022/07/01 12:37:19;;;;;;;4.72;0.30;;;14.70;99.90;;;;;;5053255;28;20052;-70
2022/07/01 12:39:53;;;;;;;3.88;1.17;;;14.70;99.90;;;;;;5050613;28;20055;-70
2022/07/01 12:42:23;;;;;;;8.68;1.48;;;14.70;99.90;;;;;;5053294;28;20061;-70
2022/07/01 12:44:51;;;;;;;19.83;1.60;;;14.60;99.90;;;;;;5033057;28;20468;-70
2022/07/01 12:47:29;;;;;;;6.65;1.02;;;14.50;99.90;;;;;;5052591;28;20049;-69
2022/07/01 12:50:20;;;;;;;7.72;0.70;;;14.30;99.90;;;;;;5044288;28;20052;-69
2022/07/01 12:53:05;;;;;;;2.80;0.60;;;14.30;99.90;;;;;;5053647;28;20461;-68
2022/07/01 12:55:34;;;;;;;3.00;0.60;;;14.30;99.90;;;;;;5053184;28;20045;-69
2022/07/01 12:58:02;;;;;;;4.05;0.65;;;14.40;99.90;;;;;;5045388;28;20401;-69
2022/07/01 13:00:30;;;;;;;3.20;0.70;;;14.40;99.90;;;;;;5053324;28;20141;-69
2022/07/01 13:03:02;;;;;;;2.47;1.02;;;14.40;99.90;;;;;;5036045;28;20056;-69
2022/07/01 13:05:32;;;;;;;2.30;0.50;;;14.40;99.90;;;;;;5059643;28;20044;-69
2022/07/01 13:08:00;;;;;;;1.88;0.50;;;14.30;99.90;;;;;;5045545;28;20514;-69
2022/07/01 13:10:27;;;;;;;2.50;0.57;;;14.40;99.90;;;;;;5053048;28;20045;-70
2022/07/01 13:12:55;;;;;;;1.13;0.40;;;14.40;99.90;;;;;;5052679;28;20049;-70
2022/07/01 13:15:21;;;;;;;0.63;0.40;;;14.40;99.90;;;;;;5047014;28;20049;-70
2022/07/01 13:17:49;;;;;;;0.60;0.32;;;14.40;99.90;;;;;;5050154;28;20037;-70